sensor_id;sensor_type;location;lat;lon;timestamp;temperature;humidity
33699;DHT22;20032;52.436;13.312;2024-03-06T00:00:41;2.90;99.90
33699;DHT22;20032;52.436;13.312;2024-03-06T00:03:06;2.80;99.90
33699;DHT22;20032;52.436;13.312;2024-03-06T00:05:32;2.70;99.90
33699;DHT22;20032;52.436;13.312;2024-03-06T00:07:57;2.60;99.90
33699;DHT22;20032;52.436;13.312;2024-03-06T00:10:23;2.70;99.90
33699;DHT22;20032;52.436;13.312;2024-03-06T00:12:48;2.70;99.90
33699;DHT22;20032;52.436;13.312;2024-03-06T00:15:14;2.80;99.90
33699;DHT22;20032;52.436;13.312;2024-03-06T00:17:39;3.00;99.90
33699;DHT22;20032;52.436;13.312;2024-03-06T00:20:05;2.90;99.90
33699;DHT22;20032;52.436;13.312;2024-03-06T00:22:31;2.80;99.90
33699;DHT22;20032;52.436;13.312;2024-03-06T00:24:57;2.70;99.90
33699;DHT22;20032;52.436;13.312;2024-03-06T00:27:22;2.70;99.90
33699;DHT22;20032;52.436;13.312;2024-03-06T00:29:48;2.60;99.90
33699;DHT22;20032;52.436;13.312;2024-03-06T00:32:14;2.60;99.90
33699;DHT22;20032;52.436;13.312;2024-03-06T00:34:39;2.70;99.90
33699;DHT22;20032;52.436;13.312;2024-03-06T00:37:05;2.80;99.90
33699;DHT22;20032;52.436;13.312;2024-03-06T00:39:30;2.90;99.90
33699;DHT22;20032;52.436;13.312;2024-03-06T00:41:56;2.90;99.90
33699;DHT22;20032;52.436;13.312;2024-03-06T00:44:21;2.80;99.90
33699;DHT22;20032;52.436;13.312;2024-03-06T00:46:47;2.70;99.90
33699;DHT22;20032;52.436;13.312;2024-03-06T00:49:12;2.80;99.90
33699;DHT22;20032;52.436;13.312;2024-03-06T00:51:38;2.60;99.90
33699;DHT22;20032;52.436;13.312;2024-03-06T00:54:04;2.50;99.90
33699;DHT22;20032;52.436;13.312;2024-03-06T00:56:29;2.50;99.90
33699;DHT22;20032;52.436;13.312;2024-03-06T00:58:56;2.60;99.90
33699;DHT22;20032;52.436;13.312;2024-03-06T01:01:21;2.70;99.90
33699;DHT22;20032;52.436;13.312;2024-03-06T01:03:47;2.70;99.90
33699;DHT22;20032;52.436;13.312;2024-03-06T01:06:12;2.70;99.90
33699;DHT22;20032;52.436;13.312;2024-03-06T01:08:38;2.60;99.90
33699;DHT22;20032;52.436;13.312;2024-03-06T01:11:03;2.60;99.90
33699;DHT22;20032;52.436;13.312;2024-03-06T01:13:30;2.70;99.90
33699;DHT22;20032;52.436;13.312;2024-03-06T01:15:55;2.60;99.90
33699;DHT22;20032;52.436;13.312;2024-03-06T01:18:21;2.60;99.90
33699;DHT22;20032;52.436;13.312;2024-03-06T01:20:46;2.60;99.90
33699;DHT22;20032;52.436;13.312;2024-03-06T01:23:12;2.60;99.90
33699;DHT22;20032;52.436;13.312;2024-03-06T01:25:37;2.70;99.90
33699;DHT22;20032;52.436;13.312;2024-03-06T01:28:03;2.70;99.90
33699;DHT22;20032;52.436;13.312;2024-03-06T01:30:28;2.70;99.90
33699;DHT22;20032;52.436;13.312;2024-03-06T01:32:54;2.70;99.90
33699;DHT22;20032;52.436;13.312;2024-03-06T01:35:19;2.70;99.90
33699;DHT22;20032;52.436;13.312;2024-03-06T01:37:45;2.70;99.90
33699;DHT22;20032;52.436;13.312;2024-03-06T01:40:11;2.70;99.90
33699;DHT22;20032;52.436;13.312;2024-03-06T01:42:37;2.60;99.90
33699;DHT22;20032;52.436;13.312;2024-03-06T01:45:03;2.70;99.90
33699;DHT22;20032;52.436;13.312;2024-03-06T01:47:29;2.70;99.90
33699;DHT22;20032;52.436;13.312;2024-03-06T01:49:55;2.80;99.90
33699;DHT22;20032;52.436;13.312;2024-03-06T01:52:21;2.80;99.90
33699;DHT22;20032;52.436;13.312;2024-03-06T01:54:48;2.80;99.90
33699;DHT22;20032;52.436;13.312;2024-03-06T01:57:15;2.80;99.90
33699;DHT22;20032;52.436;13.312;2024-03-06T01:59:42;2.80;99.90
33699;DHT22;20032;52.436;13.312;2024-03-06T02:02:08;2.70;99.90
33699;DHT22;20032;52.436;13.312;2024-03-06T02:04:36;2.70;99.90
33699;DHT22;20032;52.436;13.312;2024-03-06T02:07:02;2.70;99.90
33699;DHT22;20032;52.436;13.312;2024-03-06T02:09:28;2.70;99.90
33699;DHT22;20032;52.436;13.312;2024-03-06T02:11:53;2.70;99.90
33699;DHT22;20032;52.436;13.312;2024-03-06T02:14:19;2.70;99.90
33699;DHT22;20032;52.436;13.312;2024-03-06T02:16:45;2.70;99.90
33699;DHT22;20032;52.436;13.312;2024-03-06T02:19:10;2.70;99.90
33699;DHT22;20032;52.436;13.312;2024-03-06T02:21:35;2.70;99.90
33699;DHT22;20032;52.436;13.312;2024-03-06T02:24:01;2.60;99.90
33699;DHT22;20032;52.436;13.312;2024-03-06T02:26:27;2.70;99.90
33699;DHT22;20032;52.436;13.312;2024-03-06T02:28:54;2.60;99.90
33699;DHT22;20032;52.436;13.312;2024-03-06T02:31:21;2.60;99.90
33699;DHT22;20032;52.436;13.312;2024-03-06T02:33:48;2.50;99.90
33699;DHT22;20032;52.436;13.312;2024-03-06T02:36:14;2.40;99.90
33699;DHT22;20032;52.436;13.312;2024-03-06T02:38:40;2.30;99.90
33699;DHT22;20032;52.436;13.312;2024-03-06T02:41:06;2.40;99.90
33699;DHT22;20032;52.436;13.312;2024-03-06T02:43:33;2.40;99.90
33699;DHT22;20032;52.436;13.312;2024-03-06T02:45:58;2.40;99.90
33699;DHT22;20032;52.436;13.312;2024-03-06T02:48:24;2.50;99.90
33699;DHT22;20032;52.436;13.312;2024-03-06T02:50:49;2.50;99.90
33699;DHT22;20032;52.436;13.312;2024-03-06T02:53:15;2.40;99.90
33699;DHT22;20032;52.436;13.312;2024-03-06T02:55:40;2.40;99.90
33699;DHT22;20032;52.436;13.312;2024-03-06T02:58:05;2.40;99.90
33699;DHT22;20032;52.436;13.312;2024-03-06T03:00:31;2.40;99.90
33699;DHT22;20032;52.436;13.312;2024-03-06T03:02:57;2.40;99.90
33699;DHT22;20032;52.436;13.312;2024-03-06T03:05:23;2.40;99.90
33699;DHT22;20032;52.436;13.312;2024-03-06T03:07:49;2.40;99.90
33699;DHT22;20032;52.436;13.312;2024-03-06T03:10:14;2.40;99.90
33699;DHT22;20032;52.436;13.312;2024-03-06T03:12:40;2.40;99.90
33699;DHT22;20032;52.436;13.312;2024-03-06T03:15:06;2.50;99.90
33699;DHT22;20032;52.436;13.312;2024-03-06T03:17:32;2.50;99.90
33699;DHT22;20032;52.436;13.312;2024-03-06T03:19:59;2.50;99.90
33699;DHT22;20032;52.436;13.312;2024-03-06T03:22:24;2.40;99.90
33699;DHT22;20032;52.436;13.312;2024-03-06T03:24:50;2.40;99.90
33699;DHT22;20032;52.436;13.312;2024-03-06T03:27:15;2.40;99.90
33699;DHT22;20032;52.436;13.312;2024-03-06T03:29:41;2.40;99.90
33699;DHT22;20032;52.436;13.312;2024-03-06T03:32:06;2.40;99.90
33699;DHT22;20032;52.436;13.312;2024-03-06T03:34:34;2.40;99.90
33699;DHT22;20032;52.436;13.312;2024-03-06T03:36:59;2.40;99.90
33699;DHT22;20032;52.436;13.312;2024-03-06T03:39:25;2.30;99.90
33699;DHT22;20032;52.436;13.312;2024-03-06T03:41:52;2.30;99.90
33699;DHT22;20032;52.436;13.312;2024-03-06T03:44:18;2.30;99.90
33699;DHT22;20032;52.436;13.312;2024-03-06T03:46:45;2.20;99.90
33699;DHT22;20032;52.436;13.312;2024-03-06T03:49:10;2.30;99.90
33699;DHT22;20032;52.436;13.312;2024-03-06T03:51:37;2.30;99.90
33699;DHT22;20032;52.436;13.312;2024-03-06T03:54:03;2.30;99.90
33699;DHT22;20032;52.436;13.312;2024-03-06T03:56:28;2.40;99.90
33699;DHT22;20032;52.436;13.312;2024-03-06T03:58:55;2.40;99.90
33699;DHT22;20032;52.436;13.312;2024-03-06T04:01:21;2.40;99.90
33699;DHT22;20032;52.436;13.312;2024-03-06T04:03:46;2.40;99.90
33699;DHT22;20032;52.436;13.312;2024-03-06T04:06:12;2.50;99.90
33699;DHT22;20032;52.436;13.312;2024-03-06T04:08:37;2.40;99.90
33699;DHT22;20032;52.436;13.312;2024-03-06T04:11:04;2.40;99.90
33699;DHT22;20032;52.436;13.312;2024-03-06T04:13:29;2.30;99.90
33699;DHT22;20032;52.436;13.312;2024-03-06T04:15:55;2.20;99.90
33699;DHT22;20032;52.436;13.312;2024-03-06T04:18:21;2.10;99.90
33699;DHT22;20032;52.436;13.312;2024-03-06T04:20:46;2.10;99.90
33699;DHT22;20032;52.436;13.312;2024-03-06T04:23:12;2.00;99.90
33699;DHT22;20032;52.436;13.312;2024-03-06T04:25:37;2.00;99.90
33699;DHT22;20032;52.436;13.312;2024-03-06T04:28:05;2.00;99.90
33699;DHT22;20032;52.436;13.312;2024-03-06T04:30:33;2.10;99.90
33699;DHT22;20032;52.436;13.312;2024-03-06T04:32:58;2.00;99.90
33699;DHT22;20032;52.436;13.312;2024-03-06T04:35:23;2.00;99.90
33699;DHT22;20032;52.436;13.312;2024-03-06T04:37:49;2.00;99.90
33699;DHT22;20032;52.436;13.312;2024-03-06T04:40:14;2.00;99.90
33699;DHT22;20032;52.436;13.312;2024-03-06T04:42:45;1.90;99.90
33699;DHT22;20032;52.436;13.312;2024-03-06T04:45:13;1.80;99.90
33699;DHT22;20032;52.436;13.312;2024-03-06T04:47:40;1.90;99.90
33699;DHT22;20032;52.436;13.312;2024-03-06T04:50:09;1.90;99.90
33699;DHT22;20032;52.436;13.312;2024-03-06T04:52:36;1.90;99.90
33699;DHT22;20032;52.436;13.312;2024-03-06T04:55:01;1.80;99.90
33699;DHT22;20032;52.436;13.312;2024-03-06T04:57:28;1.80;99.90
33699;DHT22;20032;52.436;13.312;2024-03-06T04:59:53;1.90;99.90
33699;DHT22;20032;52.436;13.312;2024-03-06T05:02:19;1.90;99.90
33699;DHT22;20032;52.436;13.312;2024-03-06T05:04:44;1.90;99.90
33699;DHT22;20032;52.436;13.312;2024-03-06T05:07:12;2.00;99.90
33699;DHT22;20032;52.436;13.312;2024-03-06T05:09:38;1.90;99.90
33699;DHT22;20032;52.436;13.312;2024-03-06T05:12:05;1.90;99.90
33699;DHT22;20032;52.436;13.312;2024-03-06T05:14:31;1.80;99.90
33699;DHT22;20032;52.436;13.312;2024-03-06T05:16:56;1.90;99.90
33699;DHT22;20032;52.436;13.312;2024-03-06T05:19:21;1.90;99.90
33699;DHT22;20032;52.436;13.312;2024-03-06T05:21:47;2.00;99.90
33699;DHT22;20032;52.436;13.312;2024-03-06T05:24:12;2.00;99.90
33699;DHT22;20032;52.436;13.312;2024-03-06T05:26:38;2.00;99.90
33699;DHT22;20032;52.436;13.312;2024-03-06T05:29:03;1.90;99.90
33699;DHT22;20032;52.436;13.312;2024-03-06T05:31:29;1.90;99.90
33699;DHT22;20032;52.436;13.312;2024-03-06T05:33:55;1.80;99.90
33699;DHT22;20032;52.436;13.312;2024-03-06T05:36:20;1.70;99.90
33699;DHT22;20032;52.436;13.312;2024-03-06T05:38:46;1.70;99.90
33699;DHT22;20032;52.436;13.312;2024-03-06T05:41:14;1.70;99.90
33699;DHT22;20032;52.436;13.312;2024-03-06T05:43:39;1.80;99.90
33699;DHT22;20032;52.436;13.312;2024-03-06T05:46:06;1.80;99.90
33699;DHT22;20032;52.436;13.312;2024-03-06T05:48:31;1.90;99.90
33699;DHT22;20032;52.436;13.312;2024-03-06T05:50:58;1.80;99.90
33699;DHT22;20032;52.436;13.312;2024-03-06T05:53:23;1.80;99.90
33699;DHT22;20032;52.436;13.312;2024-03-06T05:55:50;1.80;99.90
33699;DHT22;20032;52.436;13.312;2024-03-06T05:58:15;1.80;99.90
33699;DHT22;20032;52.436;13.312;2024-03-06T06:00:41;1.90;99.90
33699;DHT22;20032;52.436;13.312;2024-03-06T06:03:08;1.90;99.90
33699;DHT22;20032;52.436;13.312;2024-03-06T06:05:35;1.90;99.90
33699;DHT22;20032;52.436;13.312;2024-03-06T06:08:02;2.00;99.90
33699;DHT22;20032;52.436;13.312;2024-03-06T06:10:27;2.00;99.90
33699;DHT22;20032;52.436;13.312;2024-03-06T06:12:53;2.10;99.90
33699;DHT22;20032;52.436;13.312;2024-03-06T06:15:19;2.10;99.90
33699;DHT22;20032;52.436;13.312;2024-03-06T06:17:45;2.10;99.90
33699;DHT22;20032;52.436;13.312;2024-03-06T06:20:11;2.20;99.90
33699;DHT22;20032;52.436;13.312;2024-03-06T06:22:41;2.30;99.90
33699;DHT22;20032;52.436;13.312;2024-03-06T06:25:06;2.30;99.90
33699;DHT22;20032;52.436;13.312;2024-03-06T06:27:33;2.40;99.90
33699;DHT22;20032;52.436;13.312;2024-03-06T06:29:58;2.40;99.90
33699;DHT22;20032;52.436;13.312;2024-03-06T06:32:24;2.50;99.90
33699;DHT22;20032;52.436;13.312;2024-03-06T06:34:50;2.50;99.90
33699;DHT22;20032;52.436;13.312;2024-03-06T06:37:15;2.50;99.90
33699;DHT22;20032;52.436;13.312;2024-03-06T06:39:41;2.60;99.90
33699;DHT22;20032;52.436;13.312;2024-03-06T06:42:06;2.60;99.90
33699;DHT22;20032;52.436;13.312;2024-03-06T06:44:32;2.80;99.90
33699;DHT22;20032;52.436;13.312;2024-03-06T06:46:57;2.80;99.90
33699;DHT22;20032;52.436;13.312;2024-03-06T06:49:23;2.80;99.90
33699;DHT22;20032;52.436;13.312;2024-03-06T06:51:49;2.90;99.90
33699;DHT22;20032;52.436;13.312;2024-03-06T06:54:15;2.90;99.90
33699;DHT22;20032;52.436;13.312;2024-03-06T06:56:40;3.00;99.90
33699;DHT22;20032;52.436;13.312;2024-03-06T06:59:07;3.00;99.90
33699;DHT22;20032;52.436;13.312;2024-03-06T07:01:33;3.10;99.90
33699;DHT22;20032;52.436;13.312;2024-03-06T07:03:58;3.10;99.90
33699;DHT22;20032;52.436;13.312;2024-03-06T07:06:24;3.20;99.90
33699;DHT22;20032;52.436;13.312;2024-03-06T07:08:50;3.30;99.90
33699;DHT22;20032;52.436;13.312;2024-03-06T07:11:17;3.30;99.90
33699;DHT22;20032;52.436;13.312;2024-03-06T07:13:44;3.40;99.90
33699;DHT22;20032;52.436;13.312;2024-03-06T07:16:10;3.50;99.90
33699;DHT22;20032;52.436;13.312;2024-03-06T07:18:35;3.40;99.90
33699;DHT22;20032;52.436;13.312;2024-03-06T07:21:01;3.50;99.90
33699;DHT22;20032;52.436;13.312;2024-03-06T07:23:26;3.60;99.90
33699;DHT22;20032;52.436;13.312;2024-03-06T07:25:52;3.60;99.90
33699;DHT22;20032;52.436;13.312;2024-03-06T07:28:18;3.70;99.90
33699;DHT22;20032;52.436;13.312;2024-03-06T07:30:44;3.70;99.90
33699;DHT22;20032;52.436;13.312;2024-03-06T07:33:09;3.80;99.90
33699;DHT22;20032;52.436;13.312;2024-03-06T07:35:35;3.90;99.90
33699;DHT22;20032;52.436;13.312;2024-03-06T07:38:02;4.00;99.90
33699;DHT22;20032;52.436;13.312;2024-03-06T07:40:30;4.00;99.90
33699;DHT22;20032;52.436;13.312;2024-03-06T07:42:56;4.10;99.90
33699;DHT22;20032;52.436;13.312;2024-03-06T07:45:21;4.10;99.90
33699;DHT22;20032;52.436;13.312;2024-03-06T07:47:46;4.20;99.90
33699;DHT22;20032;52.436;13.312;2024-03-06T07:50:13;4.30;99.90
33699;DHT22;20032;52.436;13.312;2024-03-06T07:52:45;4.30;99.90
33699;DHT22;20032;52.436;13.312;2024-03-06T07:55:11;4.40;99.90
33699;DHT22;20032;52.436;13.312;2024-03-06T07:57:37;4.50;99.90
33699;DHT22;20032;52.436;13.312;2024-03-06T08:00:03;4.60;99.90
33699;DHT22;20032;52.436;13.312;2024-03-06T08:02:35;4.60;99.90
33699;DHT22;20032;52.436;13.312;2024-03-06T08:05:01;4.70;99.90
33699;DHT22;20032;52.436;13.312;2024-03-06T08:07:26;4.70;99.90
33699;DHT22;20032;52.436;13.312;2024-03-06T08:09:52;4.80;99.90
33699;DHT22;20032;52.436;13.312;2024-03-06T08:12:17;4.90;99.90
33699;DHT22;20032;52.436;13.312;2024-03-06T08:14:43;4.90;99.90
33699;DHT22;20032;52.436;13.312;2024-03-06T08:17:08;5.10;99.90
33699;DHT22;20032;52.436;13.312;2024-03-06T08:19:34;5.10;99.90
33699;DHT22;20032;52.436;13.312;2024-03-06T08:21:59;5.20;99.90
33699;DHT22;20032;52.436;13.312;2024-03-06T08:24:26;5.20;99.90
33699;DHT22;20032;52.436;13.312;2024-03-06T08:26:52;5.40;99.90
33699;DHT22;20032;52.436;13.312;2024-03-06T08:29:18;5.50;99.90
33699;DHT22;20032;52.436;13.312;2024-03-06T08:31:43;5.70;99.90
33699;DHT22;20032;52.436;13.312;2024-03-06T08:34:09;5.90;99.90
33699;DHT22;20032;52.436;13.312;2024-03-06T08:36:34;6.10;99.90
33699;DHT22;20032;52.436;13.312;2024-03-06T08:39:00;6.10;99.90
33699;DHT22;20032;52.436;13.312;2024-03-06T08:41:25;6.10;99.90
33699;DHT22;20032;52.436;13.312;2024-03-06T08:43:51;6.10;99.90
33699;DHT22;20032;52.436;13.312;2024-03-06T08:46:17;6.10;99.90
33699;DHT22;20032;52.436;13.312;2024-03-06T08:48:43;6.10;99.90
33699;DHT22;20032;52.436;13.312;2024-03-06T08:51:08;6.30;99.90
33699;DHT22;20032;52.436;13.312;2024-03-06T08:53:37;6.40;99.90
33699;DHT22;20032;52.436;13.312;2024-03-06T08:56:03;6.50;99.90
33699;DHT22;20032;52.436;13.312;2024-03-06T08:58:29;6.70;99.90
33699;DHT22;20032;52.436;13.312;2024-03-06T09:00:55;6.70;99.90
33699;DHT22;20032;52.436;13.312;2024-03-06T09:03:20;6.70;99.90
33699;DHT22;20032;52.436;13.312;2024-03-06T09:05:46;6.70;99.90
33699;DHT22;20032;52.436;13.312;2024-03-06T09:08:11;6.90;99.90
33699;DHT22;20032;52.436;13.312;2024-03-06T09:10:38;7.00;99.90
33699;DHT22;20032;52.436;13.312;2024-03-06T09:13:03;7.10;99.90
33699;DHT22;20032;52.436;13.312;2024-03-06T09:15:29;7.10;99.90
33699;DHT22;20032;52.436;13.312;2024-03-06T09:17:54;7.10;99.90
33699;DHT22;20032;52.436;13.312;2024-03-06T09:20:20;7.20;99.90
33699;DHT22;20032;52.436;13.312;2024-03-06T09:22:48;7.40;99.90
33699;DHT22;20032;52.436;13.312;2024-03-06T09:25:14;7.60;99.90
33699;DHT22;20032;52.436;13.312;2024-03-06T09:27:39;7.70;99.90
33699;DHT22;20032;52.436;13.312;2024-03-06T09:30:06;7.80;99.90
33699;DHT22;20032;52.436;13.312;2024-03-06T09:32:31;7.90;99.90
33699;DHT22;20032;52.436;13.312;2024-03-06T09:34:58;8.00;99.90
33699;DHT22;20032;52.436;13.312;2024-03-06T09:37:24;8.30;99.90
33699;DHT22;20032;52.436;13.312;2024-03-06T09:39:50;8.20;99.90
33699;DHT22;20032;52.436;13.312;2024-03-06T09:42:16;8.20;99.90
33699;DHT22;20032;52.436;13.312;2024-03-06T09:44:42;8.20;99.90
33699;DHT22;20032;52.436;13.312;2024-03-06T09:47:11;8.20;99.90
33699;DHT22;20032;52.436;13.312;2024-03-06T09:49:37;8.20;99.90
33699;DHT22;20032;52.436;13.312;2024-03-06T09:52:04;8.50;99.90
33699;DHT22;20032;52.436;13.312;2024-03-06T09:54:30;8.50;99.90
33699;DHT22;20032;52.436;13.312;2024-03-06T09:56:56;8.30;99.90
33699;DHT22;20032;52.436;13.312;2024-03-06T09:59:22;8.40;99.90
33699;DHT22;20032;52.436;13.312;2024-03-06T10:04:21;9.00;99.90
33699;DHT22;20032;52.436;13.312;2024-03-06T10:06:47;9.20;99.90
33699;DHT22;20032;52.436;13.312;2024-03-06T10:09:12;8.80;99.90
33699;DHT22;20032;52.436;13.312;2024-03-06T10:11:41;8.70;99.90
33699;DHT22;20032;52.436;13.312;2024-03-06T10:14:08;8.90;99.90
33699;DHT22;20032;52.436;13.312;2024-03-06T10:16:33;9.00;99.90
33699;DHT22;20032;52.436;13.312;2024-03-06T10:19:17;9.00;99.90
33699;DHT22;20032;52.436;13.312;2024-03-06T10:21:47;8.90;99.90
33699;DHT22;20032;52.436;13.312;2024-03-06T10:24:23;9.00;99.90
33699;DHT22;20032;52.436;13.312;2024-03-06T10:26:52;9.40;99.90
33699;DHT22;20032;52.436;13.312;2024-03-06T10:29:20;9.50;99.90
33699;DHT22;20032;52.436;13.312;2024-03-06T10:31:50;9.80;99.90
33699;DHT22;20032;52.436;13.312;2024-03-06T10:34:19;10.20;99.90
33699;DHT22;20032;52.436;13.312;2024-03-06T10:36:46;10.30;99.90
33699;DHT22;20032;52.436;13.312;2024-03-06T10:39:16;10.50;99.90
33699;DHT22;20032;52.436;13.312;2024-03-06T10:41:46;10.50;99.90
33699;DHT22;20032;52.436;13.312;2024-03-06T10:44:16;10.80;99.90
33699;DHT22;20032;52.436;13.312;2024-03-06T10:46:44;10.70;99.90
33699;DHT22;20032;52.436;13.312;2024-03-06T10:49:12;10.40;99.90
33699;DHT22;20032;52.436;13.312;2024-03-06T10:51:42;10.30;99.90
33699;DHT22;20032;52.436;13.312;2024-03-06T10:54:09;10.60;99.90
33699;DHT22;20032;52.436;13.312;2024-03-06T10:56:39;10.70;99.90
33699;DHT22;20032;52.436;13.312;2024-03-06T10:59:10;10.70;99.90
33699;DHT22;20032;52.436;13.312;2024-03-06T11:01:37;10.50;99.90
33699;DHT22;20032;52.436;13.312;2024-03-06T11:04:05;10.40;99.90
33699;DHT22;20032;52.436;13.312;2024-03-06T11:06:32;10.20;99.90
33699;DHT22;20032;52.436;13.312;2024-03-06T11:09:00;10.00;99.90
33699;DHT22;20032;52.436;13.312;2024-03-06T11:11:26;9.70;99.90
33699;DHT22;20032;52.436;13.312;2024-03-06T11:13:55;9.50;99.90
33699;DHT22;20032;52.436;13.312;2024-03-06T11:16:30;9.40;99.90
33699;DHT22;20032;52.436;13.312;2024-03-06T11:19:07;9.40;99.90
33699;DHT22;20032;52.436;13.312;2024-03-06T11:21:33;9.30;99.90
33699;DHT22;20032;52.436;13.312;2024-03-06T11:24:19;9.30;99.90
33699;DHT22;20032;52.436;13.312;2024-03-06T11:26:47;9.50;99.90
33699;DHT22;20032;52.436;13.312;2024-03-06T11:29:21;10.00;99.90
33699;DHT22;20032;52.436;13.312;2024-03-06T11:32:07;10.60;99.90
33699;DHT22;20032;52.436;13.312;2024-03-06T11:34:34;11.10;99.90
33699;DHT22;20032;52.436;13.312;2024-03-06T11:37:03;11.60;99.90
33699;DHT22;20032;52.436;13.312;2024-03-06T11:39:33;11.50;99.90
33699;DHT22;20032;52.436;13.312;2024-03-06T11:41:59;11.00;99.90
33699;DHT22;20032;52.436;13.312;2024-03-06T11:44:27;10.60;99.90
33699;DHT22;20032;52.436;13.312;2024-03-06T11:46:57;10.40;99.90
33699;DHT22;20032;52.436;13.312;2024-03-06T11:49:25;10.10;99.90
33699;DHT22;20032;52.436;13.312;2024-03-06T11:51:52;9.70;99.90
33699;DHT22;20032;52.436;13.312;2024-03-06T11:54:18;9.70;99.90
33699;DHT22;20032;52.436;13.312;2024-03-06T11:56:48;9.60;99.90
33699;DHT22;20032;52.436;13.312;2024-03-06T11:59:15;9.90;99.90
33699;DHT22;20032;52.436;13.312;2024-03-06T12:04:06;11.80;99.90
33699;DHT22;20032;52.436;13.312;2024-03-06T12:06:33;12.00;99.90
33699;DHT22;20032;52.436;13.312;2024-03-06T12:08:59;12.40;99.90
33699;DHT22;20032;52.436;13.312;2024-03-06T12:11:25;12.80;99.90
33699;DHT22;20032;52.436;13.312;2024-03-06T12:13:51;13.30;99.90
33699;DHT22;20032;52.436;13.312;2024-03-06T12:16:17;13.00;99.90
33699;DHT22;20032;52.436;13.312;2024-03-06T12:18:42;12.70;99.90
33699;DHT22;20032;52.436;13.312;2024-03-06T12:21:10;12.10;99.90
33699;DHT22;20032;52.436;13.312;2024-03-06T12:23:36;11.40;99.90
33699;DHT22;20032;52.436;13.312;2024-03-06T12:28:31;11.80;99.90
33699;DHT22;20032;52.436;13.312;2024-03-06T12:30:57;12.50;99.90
33699;DHT22;20032;52.436;13.312;2024-03-06T12:33:27;12.90;99.90
33699;DHT22;20032;52.436;13.312;2024-03-06T12:36:08;13.70;99.90
33699;DHT22;20032;52.436;13.312;2024-03-06T12:38:36;14.00;99.90
33699;DHT22;20032;52.436;13.312;2024-03-06T12:41:02;14.50;99.90
33699;DHT22;20032;52.436;13.312;2024-03-06T12:43:28;14.30;99.90
33699;DHT22;20032;52.436;13.312;2024-03-06T12:45:54;13.30;99.90
33699;DHT22;20032;52.436;13.312;2024-03-06T12:48:22;12.90;99.90
33699;DHT22;20032;52.436;13.312;2024-03-06T12:50:47;12.50;99.90
33699;DHT22;20032;52.436;13.312;2024-03-06T12:53:18;12.10;99.90
33699;DHT22;20032;52.436;13.312;2024-03-06T12:55:44;11.70;99.90
33699;DHT22;20032;52.436;13.312;2024-03-06T12:58:12;11.80;99.90
33699;DHT22;20032;52.436;13.312;2024-03-06T13:00:38;11.70;99.90
33699;DHT22;20032;52.436;13.312;2024-03-06T13:03:04;11.70;99.90
33699;DHT22;20032;52.436;13.312;2024-03-06T13:05:30;11.50;99.90
33699;DHT22;20032;52.436;13.312;2024-03-06T13:07:56;11.70;99.90
33699;DHT22;20032;52.436;13.312;2024-03-06T13:10:23;12.60;99.90
33699;DHT22;20032;52.436;13.312;2024-03-06T13:12:49;13.50;99.90
33699;DHT22;20032;52.436;13.312;2024-03-06T13:15:14;13.90;99.90
33699;DHT22;20032;52.436;13.312;2024-03-06T13:17:40;13.30;99.90
33699;DHT22;20032;52.436;13.312;2024-03-06T13:20:07;12.90;99.90
33699;DHT22;20032;52.436;13.312;2024-03-06T13:22:40;12.00;99.90
33699;DHT22;20032;52.436;13.312;2024-03-06T13:25:06;11.60;99.90
33699;DHT22;20032;52.436;13.312;2024-03-06T13:27:32;11.40;99.90
33699;DHT22;20032;52.436;13.312;2024-03-06T13:29:58;11.20;99.90
33699;DHT22;20032;52.436;13.312;2024-03-06T13:32:24;11.10;99.90
33699;DHT22;20032;52.436;13.312;2024-03-06T13:34:50;11.00;99.90
33699;DHT22;20032;52.436;13.312;2024-03-06T13:37:15;11.20;99.90
33699;DHT22;20032;52.436;13.312;2024-03-06T13:39:41;11.00;99.90
33699;DHT22;20032;52.436;13.312;2024-03-06T13:42:08;11.10;99.90
33699;DHT22;20032;52.436;13.312;2024-03-06T13:44:35;10.90;99.90
33699;DHT22;20032;52.436;13.312;2024-03-06T13:47:01;10.80;99.90
33699;DHT22;20032;52.436;13.312;2024-03-06T13:49:43;10.70;99.90
33699;DHT22;20032;52.436;13.312;2024-03-06T13:52:09;10.60;99.90
33699;DHT22;20032;52.436;13.312;2024-03-06T13:54:40;10.50;99.90
33699;DHT22;20032;52.436;13.312;2024-03-06T13:57:08;10.60;99.90
33699;DHT22;20032;52.436;13.312;2024-03-06T13:59:34;10.70;99.90
33699;DHT22;20032;52.436;13.312;2024-03-06T14:02:01;10.50;99.90
33699;DHT22;20032;52.436;13.312;2024-03-06T14:04:28;10.50;99.90
33699;DHT22;20032;52.436;13.312;2024-03-06T14:06:54;10.60;99.90
33699;DHT22;20032;52.436;13.312;2024-03-06T14:09:20;10.60;99.90
33699;DHT22;20032;52.436;13.312;2024-03-06T14:11:45;10.40;99.90
33699;DHT22;20032;52.436;13.312;2024-03-06T14:14:11;10.10;99.90
33699;DHT22;20032;52.436;13.312;2024-03-06T14:16:38;10.00;99.90
33699;DHT22;20032;52.436;13.312;2024-03-06T14:19:05;9.90;99.90
33699;DHT22;20032;52.436;13.312;2024-03-06T14:21:31;9.80;99.90
33699;DHT22;20032;52.436;13.312;2024-03-06T14:23:58;9.80;99.90
33699;DHT22;20032;52.436;13.312;2024-03-06T14:26:24;9.80;99.90
33699;DHT22;20032;52.436;13.312;2024-03-06T14:28:49;9.70;99.90
33699;DHT22;20032;52.436;13.312;2024-03-06T14:31:15;9.70;99.90
33699;DHT22;20032;52.436;13.312;2024-03-06T14:33:41;9.70;99.90
33699;DHT22;20032;52.436;13.312;2024-03-06T14:36:07;9.70;99.90
33699;DHT22;20032;52.436;13.312;2024-03-06T14:38:33;9.60;99.90
33699;DHT22;20032;52.436;13.312;2024-03-06T14:40:59;9.50;99.90
33699;DHT22;20032;52.436;13.312;2024-03-06T14:43:24;9.40;99.90
33699;DHT22;20032;52.436;13.312;2024-03-06T14:45:50;9.40;99.90
33699;DHT22;20032;52.436;13.312;2024-03-06T14:48:16;9.40;99.90
33699;DHT22;20032;52.436;13.312;2024-03-06T14:50:42;9.30;99.90
33699;DHT22;20032;52.436;13.312;2024-03-06T14:53:07;9.30;99.90
33699;DHT22;20032;52.436;13.312;2024-03-06T14:55:33;9.40;99.90
33699;DHT22;20032;52.436;13.312;2024-03-06T14:57:59;9.40;99.90
33699;DHT22;20032;52.436;13.312;2024-03-06T15:00:25;9.30;99.90
33699;DHT22;20032;52.436;13.312;2024-03-06T15:02:50;9.20;99.90
33699;DHT22;20032;52.436;13.312;2024-03-06T15:05:16;9.10;99.90
33699;DHT22;20032;52.436;13.312;2024-03-06T15:07:41;9.20;99.90
33699;DHT22;20032;52.436;13.312;2024-03-06T15:10:08;9.20;99.90
33699;DHT22;20032;52.436;13.312;2024-03-06T15:12:34;9.20;99.90
33699;DHT22;20032;52.436;13.312;2024-03-06T15:15:01;9.20;99.90
33699;DHT22;20032;52.436;13.312;2024-03-06T15:17:28;9.20;99.90
33699;DHT22;20032;52.436;13.312;2024-03-06T15:19:53;9.20;99.90
33699;DHT22;20032;52.436;13.312;2024-03-06T15:22:19;9.20;99.90
33699;DHT22;20032;52.436;13.312;2024-03-06T15:24:44;9.20;99.90
33699;DHT22;20032;52.436;13.312;2024-03-06T15:27:11;9.20;99.90
33699;DHT22;20032;52.436;13.312;2024-03-06T15:29:37;9.10;99.90